Strona główna
METAR-TAF:

METAR-TAF

Lotnisko :

Baza lotnicza Alcantarilla

Murcja, Hiszpania

Szerokość geograficzna: 37-57N, Długość geograficzna: 001-14W, wysokość: 75 m

Aktualna obserwacja pogody

Raport powstał 43 minut temu, godzina 16:30 UTC
Wiatr 11 kt od wschodnio-południowy wschód
Temperatura 30°C
Wilgotność 38%
Ciśnienie 1009 hPa
Widzialność 10 km lub więcej
Brak chmur poniżej 1500 m i brak chmur cumulonimbus

METAR: LERI 251630Z 12011KT CAVOK 30/14 Q1009 NOSIG

czas: 19:13 (17:13 UTC)

Prognoza

Raport powstał 6 godziny i 13 minut temu, godzina 11:00 UTC
Prognoza ważna od 25 godzina 12 UTC do 26 godzina 12 UTC
Wiatr 10 kt od wschodnio-południowy wschód
Widzialność 10 km lub więcej
Brak chmur poniżej 1500 m i brak chmur cumulonimbus
Stopniowe zmiany
od 25 godzina 21 UTC do 25 godzina 24 UTC
Wiatr 3 kt z kierunków zmiennych
Stopniowe zmiany
od 26 godzina 08 UTC do 26 godzina 10 UTC
Wiatr 12 kt od wschodnio-północny wschód

TAF: LERI 251100Z 2512/2612 12010KT CAVOK TX31/2514Z TN18/2605Z BECMG 2521/2524 VRB03KT BECMG 2608/2610 07012KT

Obserwacja i prognoza pogody dla ponad 4000 lotnisk (raport METAR i TAF).

Dostępne stacje oznaczono żółtymi i czerwonymi punktami na mapie.

Najedź kursorem aby zobaczyć nazwę stacji.

Kliknij aby zobaczyć obserwacje i prognozy pogody.

Aby zmienić mapę: kliknij na zielony przycisk z czarnym krzyżykiem, aby powiększyć; na zielony przycisk z myślnikiem, aby pomniejszyć; na zielone strzałki, aby przejść do map sąsiednich.


METAR-TAF: